sensor_id;sensor_type;location;lat;lon;timestamp;pressure;altitude;pressure_sealevel;temperature;humidity
67818;BME280;54614;47.576;7.524;2022-10-31T00:01:36;98940.53;;;29.57;38.74
67818;BME280;54614;47.576;7.524;2022-10-31T00:04:03;98944.19;;;29.63;38.62
67818;BME280;54614;47.576;7.524;2022-10-31T00:06:30;98948.06;;;29.55;38.84
67818;BME280;54614;47.576;7.524;2022-10-31T00:08:59;98940.28;;;29.59;38.81
67818;BME280;54614;47.576;7.524;2022-10-31T00:11:26;98946.06;;;29.50;39.00
67818;BME280;54614;47.576;7.524;2022-10-31T00:13:52;98945.47;;;29.60;38.47
67818;BME280;54614;47.576;7.524;2022-10-31T00:16:23;98941.59;;;29.56;38.56
67818;BME280;54614;47.576;7.524;2022-10-31T00:18:55;98937.81;;;29.57;38.92
67818;BME280;54614;47.576;7.524;2022-10-31T00:21:22;98939.94;;;29.55;38.98
67818;BME280;54614;47.576;7.524;2022-10-31T00:23:48;98937.81;;;29.57;38.90
67818;BME280;54614;47.576;7.524;2022-10-31T00:26:14;98941.34;;;29.58;38.67
67818;BME280;54614;47.576;7.524;2022-10-31T00:28:40;98940.06;;;29.60;38.44
67818;BME280;54614;47.576;7.524;2022-10-31T00:31:11;98937.69;;;29.64;38.78
67818;BME280;54614;47.576;7.524;2022-10-31T00:33:39;98939.47;;;29.58;38.48
67818;BME280;54614;47.576;7.524;2022-10-31T00:36:07;98942.88;;;29.54;38.79
67818;BME280;54614;47.576;7.524;2022-10-31T00:38:33;98938.16;;;29.61;38.90
67818;BME280;54614;47.576;7.524;2022-10-31T00:40:59;98933.34;;;29.51;38.71
67818;BME280;54614;47.576;7.524;2022-10-31T00:43:25;98932.75;;;29.49;38.60
67818;BME280;54614;47.576;7.524;2022-10-31T00:45:51;98937.22;;;29.55;38.49
67818;BME280;54614;47.576;7.524;2022-10-31T00:48:16;98932.50;;;29.62;38.70
67818;BME280;54614;47.576;7.524;2022-10-31T00:50:42;98931.81;;;29.55;38.45
67818;BME280;54614;47.576;7.524;2022-10-31T00:53:08;98933.09;;;29.52;38.67
67818;BME280;54614;47.576;7.524;2022-10-31T00:55:34;98938.53;;;29.52;38.75
67818;BME280;54614;47.576;7.524;2022-10-31T00:58:00;98933.00;;;29.59;38.38
67818;BME280;54614;47.576;7.524;2022-10-31T01:00:26;98931.47;;;29.51;38.38
67818;BME280;54614;47.576;7.524;2022-10-31T01:02:52;98926.63;;;29.54;38.39
67818;BME280;54614;47.576;7.524;2022-10-31T01:05:19;98932.63;;;29.56;38.65
67818;BME280;54614;47.576;7.524;2022-10-31T01:07:44;98929.34;;;29.54;38.71
67818;BME280;54614;47.576;7.524;2022-10-31T01:10:11;98930.38;;;29.64;38.29
67818;BME280;54614;47.576;7.524;2022-10-31T01:12:44;98921.66;;;29.62;38.52
67818;BME280;54614;47.576;7.524;2022-10-31T01:15:13;98923.09;;;29.53;38.36
67818;BME280;54614;47.576;7.524;2022-10-31T01:17:39;98919.66;;;29.58;38.64
67818;BME280;54614;47.576;7.524;2022-10-31T01:20:14;98915.91;;;29.59;38.38
67818;BME280;54614;47.576;7.524;2022-10-31T01:22:40;98918.13;;;29.62;38.30
67818;BME280;54614;47.576;7.524;2022-10-31T01:25:08;98920.63;;;29.51;38.80
67818;BME280;54614;47.576;7.524;2022-10-31T01:27:34;98924.03;;;29.59;38.40
67818;BME280;54614;47.576;7.524;2022-10-31T01:30:00;98924.28;;;29.57;38.27
67818;BME280;54614;47.576;7.524;2022-10-31T01:32:27;98924.84;;;29.71;38.40
67818;BME280;54614;47.576;7.524;2022-10-31T01:34:56;98918.38;;;29.72;37.94
67818;BME280;54614;47.576;7.524;2022-10-31T01:37:22;98913.91;;;29.54;38.53
67818;BME280;54614;47.576;7.524;2022-10-31T01:39:48;98924.59;;;29.37;38.85
67818;BME280;54614;47.576;7.524;2022-10-31T01:42:21;98921.56;;;29.57;38.58
67818;BME280;54614;47.576;7.524;2022-10-31T01:44:54;98922.97;;;29.60;38.52
67818;BME280;54614;47.576;7.524;2022-10-31T01:47:47;98914.25;;;29.58;38.55
67818;BME280;54614;47.576;7.524;2022-10-31T01:50:31;98917.06;;;29.51;38.41
67818;BME280;54614;47.576;7.524;2022-10-31T01:52:59;98911.78;;;29.56;38.54
67818;BME280;54614;47.576;7.524;2022-10-31T01:55:32;98912.69;;;29.73;38.03
67818;BME280;54614;47.576;7.524;2022-10-31T01:58:07;98905.06;;;29.59;38.59
67818;BME280;54614;47.576;7.524;2022-10-31T02:00:35;98899.03;;;29.68;38.23
67818;BME280;54614;47.576;7.524;2022-10-31T02:03:01;98896.34;;;29.45;38.46
67818;BME280;54614;47.576;7.524;2022-10-31T02:05:29;98902.34;;;29.70;38.30
67818;BME280;54614;47.576;7.524;2022-10-31T02:08:02;98898.69;;;29.65;37.91
67818;BME280;54614;47.576;7.524;2022-10-31T02:10:33;98906.94;;;29.70;38.15
67818;BME280;54614;47.576;7.524;2022-10-31T02:13:03;98898.53;;;29.83;37.96
67818;BME280;54614;47.576;7.524;2022-10-31T02:15:31;98890.69;;;29.46;38.28
67818;BME280;54614;47.576;7.524;2022-10-31T02:17:58;98895.03;;;29.47;38.24
67818;BME280;54614;47.576;7.524;2022-10-31T02:20:32;98891.03;;;29.50;38.23
67818;BME280;54614;47.576;7.524;2022-10-31T02:23:27;98890.91;;;29.57;38.25
67818;BME280;54614;47.576;7.524;2022-10-31T02:34:47;98879.38;;;29.49;38.31
67818;BME280;54614;47.576;7.524;2022-10-31T02:40:49;98880.06;;;29.57;38.04
67818;BME280;54614;47.576;7.524;2022-10-31T02:46:19;98872.19;;;29.55;38.33
67818;BME280;54614;47.576;7.524;2022-10-31T02:48:51;98873.38;;;29.47;38.07
67818;BME280;54614;47.576;7.524;2022-10-31T02:51:18;98873.22;;;29.66;37.84
67818;BME280;54614;47.576;7.524;2022-10-31T02:53:45;98872.78;;;29.45;38.25
67818;BME280;54614;47.576;7.524;2022-10-31T02:56:18;98869.56;;;29.60;38.03
67818;BME280;54614;47.576;7.524;2022-10-31T02:58:57;98869.09;;;29.40;38.55
67818;BME280;54614;47.576;7.524;2022-10-31T03:01:42;98862.50;;;29.59;38.29
67818;BME280;54614;47.576;7.524;2022-10-31T03:04:27;98874.66;;;29.57;38.12
67818;BME280;54614;47.576;7.524;2022-10-31T03:07:20;98854.03;;;29.56;38.07
67818;BME280;54614;47.576;7.524;2022-10-31T03:13:11;98867.94;;;29.47;38.12
67818;BME280;54614;47.576;7.524;2022-10-31T03:15:48;98864.63;;;29.57;38.07
67818;BME280;54614;47.576;7.524;2022-10-31T03:18:28;98863.22;;;29.55;38.29
67818;BME280;54614;47.576;7.524;2022-10-31T03:21:09;98859.19;;;29.34;38.36
67818;BME280;54614;47.576;7.524;2022-10-31T03:23:40;98868.75;;;29.48;38.16
67818;BME280;54614;47.576;7.524;2022-10-31T03:26:09;98864.25;;;29.65;37.62
67818;BME280;54614;47.576;7.524;2022-10-31T03:28:49;98862.97;;;29.68;37.80
67818;BME280;54614;47.576;7.524;2022-10-31T03:31:19;98857.53;;;29.68;37.97
67818;BME280;54614;47.576;7.524;2022-10-31T03:33:50;98851.19;;;29.62;37.61
67818;BME280;54614;47.576;7.524;2022-10-31T03:36:18;98850.13;;;29.63;37.77
67818;BME280;54614;47.576;7.524;2022-10-31T03:38:46;98866.75;;;29.43;38.24
67818;BME280;54614;47.576;7.524;2022-10-31T03:41:21;98852.84;;;29.63;37.89
67818;BME280;54614;47.576;7.524;2022-10-31T03:44:12;98856.75;;;29.44;38.04
67818;BME280;54614;47.576;7.524;2022-10-31T03:46:41;98850.50;;;29.55;37.99
67818;BME280;54614;47.576;7.524;2022-10-31T03:49:09;98845.56;;;29.52;37.95
67818;BME280;54614;47.576;7.524;2022-10-31T03:52:02;98848.47;;;29.39;38.10
67818;BME280;54614;47.576;7.524;2022-10-31T03:54:46;98846.72;;;29.44;38.31
67818;BME280;54614;47.576;7.524;2022-10-31T04:00:15;98845.31;;;29.30;38.33
67818;BME280;54614;47.576;7.524;2022-10-31T04:02:53;98847.88;;;29.37;38.36
67818;BME280;54614;47.576;7.524;2022-10-31T04:05:22;98844.47;;;29.41;37.96
67818;BME280;54614;47.576;7.524;2022-10-31T04:07:54;98831.03;;;29.35;38.17
67818;BME280;54614;47.576;7.524;2022-10-31T04:10:24;98831.06;;;29.46;37.82
67818;BME280;54614;47.576;7.524;2022-10-31T04:13:01;98833.63;;;29.41;38.01
67818;BME280;54614;47.576;7.524;2022-10-31T04:15:30;98830.72;;;29.43;37.89
67818;BME280;54614;47.576;7.524;2022-10-31T04:17:59;98833.41;;;29.43;37.81
67818;BME280;54614;47.576;7.524;2022-10-31T04:20:40;98839.28;;;29.40;38.01
67818;BME280;54614;47.576;7.524;2022-10-31T04:23:25;98840.22;;;29.34;38.30
67818;BME280;54614;47.576;7.524;2022-10-31T04:25:51;98842.94;;;29.22;38.23
67818;BME280;54614;47.576;7.524;2022-10-31T04:28:18;98835.63;;;29.34;38.11
67818;BME280;54614;47.576;7.524;2022-10-31T04:30:44;98830.22;;;29.34;38.25
67818;BME280;54614;47.576;7.524;2022-10-31T04:33:10;98834.81;;;29.34;38.11
67818;BME280;54614;47.576;7.524;2022-10-31T04:35:36;98837.41;;;29.29;38.14
67818;BME280;54614;47.576;7.524;2022-10-31T04:38:02;98841.41;;;29.26;38.22
67818;BME280;54614;47.576;7.524;2022-10-31T04:40:27;98836.47;;;29.23;38.04
67818;BME280;54614;47.576;7.524;2022-10-31T04:42:53;98836.81;;;29.27;38.28
67818;BME280;54614;47.576;7.524;2022-10-31T04:45:20;98842.94;;;29.22;38.14
67818;BME280;54614;47.576;7.524;2022-10-31T04:47:46;98843.78;;;29.23;37.92
67818;BME280;54614;47.576;7.524;2022-10-31T04:50:12;98841.53;;;29.19;38.33
67818;BME280;54614;47.576;7.524;2022-10-31T04:52:45;98842.34;;;29.32;38.04
67818;BME280;54614;47.576;7.524;2022-10-31T04:55:13;98842.00;;;29.28;38.00
67818;BME280;54614;47.576;7.524;2022-10-31T04:57:45;98850.72;;;29.18;38.17
67818;BME280;54614;47.576;7.524;2022-10-31T05:00:14;98838.13;;;29.12;38.50
67818;BME280;54614;47.576;7.524;2022-10-31T05:02:52;98838.25;;;29.17;38.36
67818;BME280;54614;47.576;7.524;2022-10-31T05:05:21;98841.19;;;29.16;38.53
67818;BME280;54614;47.576;7.524;2022-10-31T05:07:49;98842.59;;;29.07;38.75
67818;BME280;54614;47.576;7.524;2022-10-31T05:10:22;98838.72;;;29.14;38.33
67818;BME280;54614;47.576;7.524;2022-10-31T05:13:00;98832.94;;;29.11;38.15
67818;BME280;54614;47.576;7.524;2022-10-31T05:15:27;98832.53;;;28.72;39.70
67818;BME280;54614;47.576;7.524;2022-10-31T05:17:55;98830.53;;;28.79;39.30
67818;BME280;54614;47.576;7.524;2022-10-31T05:20:24;98828.09;;;29.13;38.55
67818;BME280;54614;47.576;7.524;2022-10-31T05:22:53;98829.97;;;29.36;38.14
67818;BME280;54614;47.576;7.524;2022-10-31T05:25:22;98832.94;;;29.11;38.75
67818;BME280;54614;47.576;7.524;2022-10-31T05:27:50;98829.41;;;28.99;38.73
67818;BME280;54614;47.576;7.524;2022-10-31T05:30:21;98829.75;;;29.02;38.50
67818;BME280;54614;47.576;7.524;2022-10-31T05:32:50;98829.97;;;28.89;38.88
67818;BME280;54614;47.576;7.524;2022-10-31T05:35:31;98838.00;;;29.07;38.43
67818;BME280;54614;47.576;7.524;2022-10-31T05:37:58;98823.28;;;29.03;38.83
67818;BME280;54614;47.576;7.524;2022-10-31T05:40:26;98828.09;;;29.13;38.35
67818;BME280;54614;47.576;7.524;2022-10-31T05:42:54;98825.16;;;29.03;38.42
67818;BME280;54614;47.576;7.524;2022-10-31T05:45:22;98819.88;;;28.96;38.52
67818;BME280;54614;47.576;7.524;2022-10-31T05:50:17;98821.94;;;29.76;38.55
67818;BME280;54614;47.576;7.524;2022-10-31T05:52:43;98819.03;;;29.94;38.00
67818;BME280;54614;47.576;7.524;2022-10-31T05:55:09;98815.84;;;29.97;37.78
67818;BME280;54614;47.576;7.524;2022-10-31T05:57:34;98817.72;;;29.97;38.03
67818;BME280;54614;47.576;7.524;2022-10-31T06:00:00;98803.09;;;29.98;37.83
67818;BME280;54614;47.576;7.524;2022-10-31T06:02:26;98811.13;;;30.04;37.57
67818;BME280;54614;47.576;7.524;2022-10-31T06:04:52;98803.56;;;30.06;37.65
67818;BME280;54614;47.576;7.524;2022-10-31T06:07:18;98809.19;;;29.76;38.02
67818;BME280;54614;47.576;7.524;2022-10-31T06:09:44;98805.47;;;29.54;39.06
67818;BME280;54614;47.576;7.524;2022-10-31T06:12:10;98808.31;;;29.36;39.76
67818;BME280;54614;47.576;7.524;2022-10-31T06:14:35;98804.69;;;29.82;38.67
67818;BME280;54614;47.576;7.524;2022-10-31T06:17:01;98806.53;;;29.93;38.08
67818;BME280;54614;47.576;7.524;2022-10-31T06:19:27;98817.88;;;29.90;38.16
67818;BME280;54614;47.576;7.524;2022-10-31T06:21:53;98806.38;;;29.71;38.31
67818;BME280;54614;47.576;7.524;2022-10-31T06:24:18;98804.03;;;29.63;38.34
67818;BME280;54614;47.576;7.524;2022-10-31T06:27:03;98803.22;;;29.63;38.45
67818;BME280;54614;47.576;7.524;2022-10-31T06:29:28;98797.69;;;29.98;37.69
67818;BME280;54614;47.576;7.524;2022-10-31T06:31:54;98802.47;;;29.79;37.93
67818;BME280;54614;47.576;7.524;2022-10-31T06:34:20;98804.28;;;29.62;37.87
67818;BME280;54614;47.576;7.524;2022-10-31T06:36:46;98806.66;;;29.46;38.34
67818;BME280;54614;47.576;7.524;2022-10-31T06:39:13;98806.13;;;29.73;38.31
67818;BME280;54614;47.576;7.524;2022-10-31T06:41:38;98811.63;;;29.26;38.86
67818;BME280;54614;47.576;7.524;2022-10-31T06:44:06;98812.16;;;28.81;40.04
67818;BME280;54614;47.576;7.524;2022-10-31T06:46:33;98820.09;;;29.30;38.96
67818;BME280;54614;47.576;7.524;2022-10-31T06:48:59;98818.22;;;29.30;38.96
67818;BME280;54614;47.576;7.524;2022-10-31T06:51:25;98818.09;;;29.48;39.18
67818;BME280;54614;47.576;7.524;2022-10-31T06:53:51;98825.41;;;29.48;39.25
67818;BME280;54614;47.576;7.524;2022-10-31T06:56:17;98828.59;;;29.22;39.54
67818;BME280;54614;47.576;7.524;2022-10-31T06:58:42;98835.16;;;29.26;46.54
67818;BME280;54614;47.576;7.524;2022-10-31T07:01:08;98824.22;;;29.44;44.67
67818;BME280;54614;47.576;7.524;2022-10-31T07:03:34;98832.13;;;29.45;43.57
67818;BME280;54614;47.576;7.524;2022-10-31T07:06:00;98834.81;;;29.57;42.19
67818;BME280;54614;47.576;7.524;2022-10-31T07:08:25;98837.03;;;29.60;42.00
67818;BME280;54614;47.576;7.524;2022-10-31T07:10:56;98839.31;;;29.51;41.55
67818;BME280;54614;47.576;7.524;2022-10-31T07:13:23;98834.22;;;29.55;41.25
67818;BME280;54614;47.576;7.524;2022-10-31T07:15:58;98842.13;;;29.57;40.96
67818;BME280;54614;47.576;7.524;2022-10-31T07:18:25;98835.88;;;30.08;39.09
67818;BME280;54614;47.576;7.524;2022-10-31T07:20:52;98841.22;;;30.03;38.82
67818;BME280;54614;47.576;7.524;2022-10-31T07:23:18;98841.22;;;30.31;38.32
67818;BME280;54614;47.576;7.524;2022-10-31T07:25:44;98841.09;;;29.86;38.81
67818;BME280;54614;47.576;7.524;2022-10-31T07:28:11;98849.63;;;29.78;38.18
67818;BME280;54614;47.576;7.524;2022-10-31T07:30:38;98845.25;;;29.77;38.52
67818;BME280;54614;47.576;7.524;2022-10-31T07:33:05;98837.72;;;29.79;38.04
67818;BME280;54614;47.576;7.524;2022-10-31T07:35:31;98850.16;;;29.92;38.51
67818;BME280;54614;47.576;7.524;2022-10-31T07:38:09;98848.09;;;29.70;38.38
67818;BME280;54614;47.576;7.524;2022-10-31T07:40:36;98862.38;;;29.66;38.94
67818;BME280;54614;47.576;7.524;2022-10-31T07:43:02;98855.78;;;29.62;38.38
67818;BME280;54614;47.576;7.524;2022-10-31T07:45:28;98861.56;;;29.54;38.39
67818;BME280;54614;47.576;7.524;2022-10-31T07:47:54;98854.50;;;29.52;38.63
67818;BME280;54614;47.576;7.524;2022-10-31T07:50:28;98849.50;;;29.73;38.28
67818;BME280;54614;47.576;7.524;2022-10-31T07:53:11;98865.78;;;29.73;38.48
67818;BME280;54614;47.576;7.524;2022-10-31T07:55:38;98860.25;;;29.68;38.61
67818;BME280;54614;47.576;7.524;2022-10-31T07:58:13;98855.91;;;29.67;38.14
67818;BME280;54614;47.576;7.524;2022-10-31T08:00:42;98866.75;;;29.67;38.69
67818;BME280;54614;47.576;7.524;2022-10-31T08:03:15;98859.78;;;29.71;38.05
67818;BME280;54614;47.576;7.524;2022-10-31T08:05:42;98865.78;;;29.73;38.04
67818;BME280;54614;47.576;7.524;2022-10-31T08:08:10;98857.28;;;29.81;38.24
67818;BME280;54614;47.576;7.524;2022-10-31T08:10:36;98862.50;;;29.71;38.55
67818;BME280;54614;47.576;7.524;2022-10-31T08:13:10;98859.50;;;29.84;38.29
67818;BME280;54614;47.576;7.524;2022-10-31T08:15:36;98864.97;;;29.61;38.13
67818;BME280;54614;47.576;7.524;2022-10-31T08:18:06;98860.53;;;29.95;37.97
67818;BME280;54614;47.576;7.524;2022-10-31T08:20:32;98857.25;;;30.04;37.64
67818;BME280;54614;47.576;7.524;2022-10-31T08:23:01;98851.75;;;29.76;37.97
67818;BME280;54614;47.576;7.524;2022-10-31T08:25:31;98849.78;;;29.60;38.50
67818;BME280;54614;47.576;7.524;2022-10-31T08:27:57;98841.84;;;29.70;38.18
67818;BME280;54614;47.576;7.524;2022-10-31T08:30:27;98849.66;;;29.55;38.28
67818;BME280;54614;47.576;7.524;2022-10-31T08:33:15;98839.03;;;29.41;38.16
67818;BME280;54614;47.576;7.524;2022-10-31T08:35:42;98833.63;;;29.41;37.94
67818;BME280;54614;47.576;7.524;2022-10-31T08:38:11;98818.78;;;29.56;37.64
67818;BME280;54614;47.576;7.524;2022-10-31T08:40:38;98820.19;;;29.58;37.88
67818;BME280;54614;47.576;7.524;2022-10-31T08:43:15;98826.56;;;29.40;38.19
67818;BME280;54614;47.576;7.524;2022-10-31T08:45:43;98819.47;;;29.63;37.83
67818;BME280;54614;47.576;7.524;2022-10-31T08:48:15;98824.44;;;29.54;38.11
67818;BME280;54614;47.576;7.524;2022-10-31T08:50:42;98821.03;;;29.47;38.60
67818;BME280;54614;47.576;7.524;2022-10-31T08:53:17;98820.81;;;29.48;38.27
67818;BME280;54614;47.576;7.524;2022-10-31T08:55:46;98815.13;;;29.38;38.22
67818;BME280;54614;47.576;7.524;2022-10-31T08:58:18;98809.59;;;29.57;38.13
67818;BME280;54614;47.576;7.524;2022-10-31T09:00:47;98812.75;;;29.65;38.23
67818;BME280;54614;47.576;7.524;2022-10-31T09:03:18;98808.19;;;29.54;37.89
67818;BME280;54614;47.576;7.524;2022-10-31T09:05:44;98814.66;;;29.30;38.63
67818;BME280;54614;47.576;7.524;2022-10-31T09:08:12;98815.50;;;29.30;38.57
67818;BME280;54614;47.576;7.524;2022-10-31T09:10:39;98813.75;;;29.24;38.42
67818;BME280;54614;47.576;7.524;2022-10-31T09:13:13;98800.88;;;29.31;38.41
67818;BME280;54614;47.576;7.524;2022-10-31T09:15:42;98809.25;;;29.41;38.54
67818;BME280;54614;47.576;7.524;2022-10-31T09:18:11;98813.28;;;29.15;39.10
67818;BME280;54614;47.576;7.524;2022-10-31T09:20:38;98811.72;;;29.55;38.49
67818;BME280;54614;47.576;7.524;2022-10-31T09:23:14;98808.56;;;29.46;38.94
67818;BME280;54614;47.576;7.524;2022-10-31T09:25:41;98812.78;;;29.54;38.85
67818;BME280;54614;47.576;7.524;2022-10-31T09:28:12;98805.44;;;29.66;38.45
67818;BME280;54614;47.576;7.524;2022-10-31T09:30:38;98794.84;;;29.64;37.92
67818;BME280;54614;47.576;7.524;2022-10-31T09:33:09;98789.63;;;29.74;37.59
67818;BME280;54614;47.576;7.524;2022-10-31T09:35:36;98788.31;;;29.77;38.04
67818;BME280;54614;47.576;7.524;2022-10-31T09:38:09;98791.97;;;29.82;37.27
67818;BME280;54614;47.576;7.524;2022-10-31T09:40:40;98792.19;;;29.81;37.69
67818;BME280;54614;47.576;7.524;2022-10-31T09:52:26;98779.81;;;29.85;37.49
67818;BME280;54614;47.576;7.524;2022-10-31T09:57:40;98776.63;;;29.25;38.50
67818;BME280;54614;47.576;7.524;2022-10-31T10:00:16;98784.97;;;28.76;40.24
67818;BME280;54614;47.576;7.524;2022-10-31T10:03:02;98796.19;;;28.27;41.26
67818;BME280;54614;47.576;7.524;2022-10-31T10:05:48;98784.13;;;28.64;40.45
67818;BME280;54614;47.576;7.524;2022-10-31T10:08:22;98787.09;;;29.56;38.92
67818;BME280;54614;47.576;7.524;2022-10-31T10:10:58;98787.06;;;29.96;38.29
67818;BME280;54614;47.576;7.524;2022-10-31T10:25:40;98794.28;;;29.50;43.41
67818;BME280;54614;47.576;7.524;2022-10-31T10:28:22;98799.72;;;29.91;45.28
67818;BME280;54614;47.576;7.524;2022-10-31T10:31:03;98796.03;;;29.97;44.31
67818;BME280;54614;47.576;7.524;2022-10-31T10:33:42;98797.09;;;29.96;43.67
67818;BME280;54614;47.576;7.524;2022-10-31T10:36:18;98795.13;;;29.16;42.17
67818;BME280;54614;47.576;7.524;2022-10-31T10:38:53;98794.72;;;28.66;42.69
67818;BME280;54614;47.576;7.524;2022-10-31T10:41:23;98770.94;;;29.61;41.08
67818;BME280;54614;47.576;7.524;2022-10-31T10:43:51;98764.41;;;30.31;39.38
67818;BME280;54614;47.576;7.524;2022-10-31T10:51:45;98745.47;;;29.62;39.76
67818;BME280;54614;47.576;7.524;2022-10-31T10:59:39;98732.94;;;29.73;41.18
67818;BME280;54614;47.576;7.524;2022-10-31T11:02:19;98727.63;;;30.06;41.04
67818;BME280;54614;47.576;7.524;2022-10-31T11:04:51;98726.53;;;30.07;40.90
67818;BME280;54614;47.576;7.524;2022-10-31T11:07:17;98727.84;;;30.05;41.74
67818;BME280;54614;47.576;7.524;2022-10-31T11:09:44;98718.06;;;29.47;42.59
67818;BME280;54614;47.576;7.524;2022-10-31T11:12:24;98709.13;;;30.03;40.35
67818;BME280;54614;47.576;7.524;2022-10-31T11:14:57;98709.44;;;29.78;40.35
67818;BME280;54614;47.576;7.524;2022-10-31T11:17:36;98700.50;;;30.06;40.00
67818;BME280;54614;47.576;7.524;2022-10-31T11:22:29;98711.25;;;30.01;40.20
67818;BME280;54614;47.576;7.524;2022-10-31T11:24:55;98700.09;;;29.86;40.43
67818;BME280;54614;47.576;7.524;2022-10-31T11:27:23;98704.50;;;30.04;40.33
67818;BME280;54614;47.576;7.524;2022-10-31T11:29:50;98700.28;;;29.96;40.02
67818;BME280;54614;47.576;7.524;2022-10-31T11:32:24;98692.84;;;30.03;40.06
67818;BME280;54614;47.576;7.524;2022-10-31T11:34:56;98686.34;;;30.04;39.93
67818;BME280;54614;47.576;7.524;2022-10-31T11:37:32;98678.38;;;30.14;39.85
67818;BME280;54614;47.576;7.524;2022-10-31T11:40:05;98669.09;;;30.27;39.81
67818;BME280;54614;47.576;7.524;2022-10-31T11:42:42;98662.44;;;30.18;39.83
67818;BME280;54614;47.576;7.524;2022-10-31T11:45:16;98650.25;;;30.21;39.94
67818;BME280;54614;47.576;7.524;2022-10-31T11:47:49;98641.06;;;30.22;39.49
67818;BME280;54614;47.576;7.524;2022-10-31T11:50:38;98631.28;;;30.04;39.87
67818;BME280;54614;47.576;7.524;2022-10-31T11:53:26;98624.84;;;30.27;39.45
67818;BME280;54614;47.576;7.524;2022-10-31T11:56:15;98622.63;;;30.24;39.60
67818;BME280;54614;47.576;7.524;2022-10-31T11:58:42;98629.56;;;30.14;39.74
67818;BME280;54614;47.576;7.524;2022-10-31T12:01:30;98619.53;;;30.15;39.41
67818;BME280;54614;47.576;7.524;2022-10-31T12:04:07;98623.69;;;30.39;38.52
67818;BME280;54614;47.576;7.524;2022-10-31T12:06:35;98629.50;;;29.24;40.88
67818;BME280;54614;47.576;7.524;2022-10-31T12:15:12;98621.63;;;28.59;43.38
67818;BME280;54614;47.576;7.524;2022-10-31T12:28:56;98594.25;;;29.81;39.97
67818;BME280;54614;47.576;7.524;2022-10-31T12:32:24;98579.97;;;29.86;39.61
67818;BME280;54614;47.576;7.524;2022-10-31T12:47:05;98538.84;;;30.66;38.64
67818;BME280;54614;47.576;7.524;2022-10-31T12:58:40;98512.16;;;30.19;39.48
67818;BME280;54614;47.576;7.524;2022-10-31T13:01:39;98508.50;;;30.52;38.71
67818;BME280;54614;47.576;7.524;2022-10-31T13:04:19;98505.53;;;30.54;38.53
67818;BME280;54614;47.576;7.524;2022-10-31T13:06:58;98500.28;;;30.25;39.29
67818;BME280;54614;47.576;7.524;2022-10-31T13:12:29;98497.84;;;29.23;40.95
67818;BME280;54614;47.576;7.524;2022-10-31T13:18:00;98484.22;;;29.35;40.72
67818;BME280;54614;47.576;7.524;2022-10-31T13:20:33;98489.94;;;29.22;41.05
67818;BME280;54614;47.576;7.524;2022-10-31T13:23:28;98487.09;;;29.28;40.88
67818;BME280;54614;47.576;7.524;2022-10-31T13:25:57;98479.56;;;29.64;40.26
67818;BME280;54614;47.576;7.524;2022-10-31T13:28:54;98472.44;;;30.13;39.43
67818;BME280;54614;47.576;7.524;2022-10-31T13:31:23;98449.28;;;30.05;39.12
67818;BME280;54614;47.576;7.524;2022-10-31T13:33:58;98446.66;;;30.10;39.04
67818;BME280;54614;47.576;7.524;2022-10-31T13:40:02;98452.78;;;30.23;38.97
67818;BME280;54614;47.576;7.524;2022-10-31T13:42:53;98431.69;;;30.52;38.01
67818;BME280;54614;47.576;7.524;2022-10-31T13:45:24;98422.94;;;30.23;38.62
67818;BME280;54614;47.576;7.524;2022-10-31T13:48:28;98415.09;;;30.26;38.18
67818;BME280;54614;47.576;7.524;2022-10-31T13:51:04;98416.69;;;30.22;38.11
67818;BME280;54614;47.576;7.524;2022-10-31T13:53:41;98407.22;;;30.25;38.50
67818;BME280;54614;47.576;7.524;2022-10-31T13:58:34;98404.69;;;30.62;38.18
67818;BME280;54614;47.576;7.524;2022-10-31T14:03:39;98411.50;;;30.21;38.74
67818;BME280;54614;47.576;7.524;2022-10-31T14:06:09;98423.81;;;29.90;39.92
67818;BME280;54614;47.576;7.524;2022-10-31T14:08:42;98416.38;;;29.80;40.07
67818;BME280;54614;47.576;7.524;2022-10-31T14:11:25;98426.06;;;29.76;39.95
67818;BME280;54614;47.576;7.524;2022-10-31T14:13:56;98431.44;;;29.71;40.43
67818;BME280;54614;47.576;7.524;2022-10-31T14:16:31;98426.00;;;29.37;41.17
67818;BME280;54614;47.576;7.524;2022-10-31T14:19:07;98424.69;;;29.40;41.48
67818;BME280;54614;47.576;7.524;2022-10-31T14:21:45;98416.09;;;29.60;41.07
67818;BME280;54614;47.576;7.524;2022-10-31T14:27:32;98412.06;;;29.62;40.79
67818;BME280;54614;47.576;7.524;2022-10-31T14:29:55;98422.41;;;29.65;40.72
67818;BME280;54614;47.576;7.524;2022-10-31T14:32:26;98412.66;;;29.47;41.50
67818;BME280;54614;47.576;7.524;2022-10-31T14:34:56;98411.06;;;29.68;40.78
67818;BME280;54614;47.576;7.524;2022-10-31T14:51:46;98398.84;;;29.88;39.40
67818;BME280;54614;47.576;7.524;2022-10-31T14:54:19;98389.88;;;29.65;40.06
67818;BME280;54614;47.576;7.524;2022-10-31T14:57:01;98384.28;;;29.94;39.57
67818;BME280;54614;47.576;7.524;2022-10-31T14:59:35;98383.06;;;30.23;39.01
67818;BME280;54614;47.576;7.524;2022-10-31T15:02:36;98381.06;;;30.40;38.80
67818;BME280;54614;47.576;7.524;2022-10-31T15:05:11;98391.47;;;29.83;39.40
67818;BME280;54614;47.576;7.524;2022-10-31T15:07:53;98401.56;;;29.88;39.53
67818;BME280;54614;47.576;7.524;2022-10-31T15:10:30;98399.47;;;29.73;39.71
67818;BME280;54614;47.576;7.524;2022-10-31T15:13:10;98392.69;;;29.92;38.97
67818;BME280;54614;47.576;7.524;2022-10-31T15:15:37;98389.09;;;29.48;40.87
67818;BME280;54614;47.576;7.524;2022-10-31T15:18:05;98394.31;;;29.55;39.99
67818;BME280;54614;47.576;7.524;2022-10-31T15:20:42;98399.34;;;30.01;39.68
67818;BME280;54614;47.576;7.524;2022-10-31T15:23:22;98396.56;;;29.79;39.71
67818;BME280;54614;47.576;7.524;2022-10-31T15:25:49;98392.28;;;29.83;39.68
67818;BME280;54614;47.576;7.524;2022-10-31T15:28:27;98413.41;;;29.81;39.56
67818;BME280;54614;47.576;7.524;2022-10-31T15:30:56;98425.00;;;30.15;39.21
67818;BME280;54614;47.576;7.524;2022-10-31T15:33:29;98415.63;;;29.84;39.99
67818;BME280;54614;47.576;7.524;2022-10-31T15:35:58;98408.28;;;29.46;40.17